createdAt,value
2023-01-09T00:01:44.407Z,41.60
2023-01-09T00:04:51.300Z,45.70
2023-01-09T00:07:58.127Z,41.00
2023-01-09T00:11:06.003Z,45.10
2023-01-09T00:14:12.746Z,42.10
2023-01-09T00:17:19.546Z,41.10
2023-01-09T00:20:26.274Z,44.40
2023-01-09T00:23:33.165Z,44.60
2023-01-09T00:26:40.078Z,40.70
2023-01-09T00:29:49.459Z,39.20
2023-01-09T00:32:57.089Z,34.50
2023-01-09T00:36:04.163Z,45.90
2023-01-09T00:39:10.993Z,45.60
2023-01-09T00:42:21.938Z,43.60
2023-01-09T00:45:31.460Z,44.60
2023-01-09T00:51:45.527Z,48.90
2023-01-09T00:54:52.863Z,44.90
2023-01-09T00:57:59.718Z,46.70
2023-01-09T01:01:06.678Z,42.50
2023-01-09T01:04:31.161Z,43.70
2023-01-09T01:07:41.239Z,37.30
2023-01-09T01:10:49.365Z,39.10
2023-01-09T01:13:57.053Z,43.00
2023-01-09T01:17:04.035Z,42.50
2023-01-09T01:20:14.103Z,49.80
2023-01-09T01:23:21.016Z,50.10
2023-01-09T01:26:27.890Z,55.70
2023-01-09T01:29:34.709Z,46.70
2023-01-09T01:32:41.979Z,48.00
2023-01-09T01:35:48.702Z,48.20
2023-01-09T01:38:55.352Z,50.70
2023-01-09T01:42:03.829Z,46.50
2023-01-09T01:45:14.913Z,45.90
2023-01-09T01:48:25.475Z,49.70
2023-01-09T01:51:35.689Z,47.50
2023-01-09T01:54:42.956Z,46.40
2023-01-09T01:57:56.074Z,36.90
2023-01-09T02:01:03.534Z,38.50
2023-01-09T02:04:10.942Z,42.00
2023-01-09T02:07:17.618Z,46.80
2023-01-09T02:10:25.486Z,46.60
2023-01-09T02:13:33.722Z,52.70
2023-01-09T02:16:52.046Z,53.20
2023-01-09T02:20:32.678Z,52.10
2023-01-09T02:24:09.130Z,47.60
2023-01-09T02:27:56.432Z,49.20
2023-01-09T02:31:10.528Z,49.70
2023-01-09T02:34:27.581Z,50.70
2023-01-09T02:37:45.122Z,50.40
2023-01-09T02:41:01.176Z,46.10
2023-01-09T02:44:26.432Z,41.70
2023-01-09T02:47:44.938Z,39.90
2023-01-09T02:51:07.671Z,46.20
2023-01-09T02:54:29.255Z,49.80
2023-01-09T02:57:53.244Z,48.40
2023-01-09T03:01:08.809Z,51.10
2023-01-09T03:04:22.318Z,42.50
2023-01-09T03:07:35.786Z,40.90
2023-01-09T03:10:46.668Z,42.50
2023-01-09T03:13:56.887Z,44.20
2023-01-09T03:17:08.614Z,48.20
2023-01-09T03:20:20.818Z,42.90
2023-01-09T03:23:27.633Z,44.30
2023-01-09T03:26:34.502Z,40.50
2023-01-09T03:29:41.301Z,37.30
2023-01-09T03:32:48.127Z,37.90
2023-01-09T03:35:54.798Z,42.50
2023-01-09T03:39:01.517Z,44.70
2023-01-09T03:42:08.491Z,45.10
2023-01-09T03:45:16.178Z,55.50
2023-01-09T03:48:23.650Z,49.40
2023-01-09T03:51:30.388Z,53.60
2023-01-09T03:54:37.134Z,50.50
2023-01-09T03:57:44.004Z,44.10
2023-01-09T04:00:52.393Z,49.20
2023-01-09T04:03:59.165Z,53.00
2023-01-09T04:07:06.100Z,45.80
2023-01-09T04:10:14.222Z,46.00
2023-01-09T04:13:21.169Z,44.50
2023-01-09T04:16:28.083Z,41.90
2023-01-09T04:19:34.720Z,44.50
2023-01-09T04:22:41.508Z,44.50
2023-01-09T04:25:49.109Z,54.30
2023-01-09T04:28:55.759Z,54.60
2023-01-09T04:32:02.498Z,51.00
2023-01-09T04:35:11.209Z,51.90
2023-01-09T04:38:18.402Z,47.20
2023-01-09T04:41:42.663Z,58.20
2023-01-09T04:44:53.858Z,54.00
2023-01-09T04:48:00.594Z,53.60
2023-01-09T04:51:07.707Z,53.00
2023-01-09T04:54:14.903Z,50.70
2023-01-09T04:57:21.985Z,52.00
2023-01-09T05:00:29.109Z,49.00
2023-01-09T05:03:35.732Z,40.10
2023-01-09T05:06:42.502Z,47.30
2023-01-09T05:09:49.316Z,46.10
2023-01-09T05:12:56.022Z,51.30
2023-01-09T05:16:02.901Z,58.50
2023-01-09T05:19:09.720Z,60.30
2023-01-09T05:22:16.422Z,52.60
2023-01-09T05:25:23.118Z,53.50
2023-01-09T05:28:29.894Z,54.90
2023-01-09T05:31:36.695Z,52.70
2023-01-09T05:34:43.310Z,53.10
2023-01-09T05:37:52.455Z,50.10
2023-01-09T05:40:59.493Z,49.00
2023-01-09T05:44:06.648Z,48.10
2023-01-09T05:47:13.516Z,42.10
2023-01-09T05:50:20.323Z,48.10
2023-01-09T05:53:27.284Z,48.80
2023-01-09T05:56:34.139Z,51.10
2023-01-09T05:59:40.863Z,54.00
2023-01-09T06:02:47.641Z,52.40
2023-01-09T06:05:54.505Z,46.00
2023-01-09T06:09:01.289Z,45.90
2023-01-09T06:12:08.807Z,42.50
2023-01-09T06:15:16.518Z,45.70
2023-01-09T06:18:23.443Z,49.30
2023-01-09T06:21:30.415Z,53.10
2023-01-09T06:24:37.236Z,54.80
2023-01-09T06:27:44.027Z,54.00
2023-01-09T06:30:54.327Z,47.30
2023-01-09T06:34:01.089Z,59.00
2023-01-09T06:37:07.888Z,53.70
2023-01-09T06:40:15.911Z,55.70
2023-01-09T06:43:22.891Z,54.10
2023-01-09T06:46:29.877Z,44.70
2023-01-09T06:49:36.747Z,49.00
2023-01-09T06:52:43.695Z,52.90
2023-01-09T06:55:50.568Z,56.00
2023-01-09T06:58:57.472Z,53.80
2023-01-09T07:02:04.401Z,56.30
2023-01-09T07:05:12.908Z,61.70
2023-01-09T07:08:19.768Z,61.00
2023-01-09T07:11:26.840Z,53.10
2023-01-09T07:14:34.260Z,52.60
2023-01-09T07:17:41.045Z,54.70
2023-01-09T07:20:48.529Z,53.20
2023-01-09T07:23:55.641Z,53.40
2023-01-09T07:27:02.914Z,53.30
2023-01-09T07:30:12.351Z,49.90
2023-01-09T07:33:19.136Z,43.60
2023-01-09T07:36:26.060Z,61.00
2023-01-09T07:39:33.269Z,58.40
2023-01-09T07:42:40.092Z,49.40
2023-01-09T07:45:48.635Z,59.20
2023-01-09T07:48:56.504Z,56.00
2023-01-09T07:52:03.962Z,53.40
2023-01-09T07:55:12.628Z,49.20
2023-01-09T07:58:19.666Z,52.90
2023-01-09T08:01:26.641Z,58.60
2023-01-09T08:04:33.607Z,55.60
2023-01-09T08:07:40.532Z,49.30
2023-01-09T08:10:47.432Z,56.90
2023-01-09T08:13:54.521Z,58.50
2023-01-09T08:17:01.226Z,47.70
2023-01-09T08:20:11.084Z,52.80
2023-01-09T08:23:18.021Z,52.30
2023-01-09T08:26:24.921Z,48.70
2023-01-09T08:29:31.640Z,52.50
2023-01-09T08:32:42.475Z,53.00
2023-01-09T08:35:49.233Z,43.10
2023-01-09T08:38:56.161Z,49.70
2023-01-09T08:42:20.559Z,51.40
2023-01-09T08:45:45.413Z,50.00
2023-01-09T08:48:52.621Z,50.50
2023-01-09T08:51:59.306Z,49.90
2023-01-09T08:55:06.936Z,55.00
2023-01-09T08:58:13.883Z,58.50
2023-01-09T09:01:20.648Z,55.80
2023-01-09T09:04:27.654Z,59.30
2023-01-09T09:07:34.553Z,54.10
2023-01-09T09:10:41.277Z,57.80
2023-01-09T09:13:48.046Z,58.90
2023-01-09T09:16:55.226Z,63.80
2023-01-09T09:20:02.421Z,76.70
2023-01-09T09:23:09.296Z,68.30
2023-01-09T09:26:16.307Z,73.20
2023-01-09T09:29:23.280Z,68.50
2023-01-09T09:32:30.193Z,71.80
2023-01-09T09:35:37.711Z,69.80
2023-01-09T09:38:44.543Z,69.40
2023-01-09T09:42:28.808Z,66.70
2023-01-09T09:45:44.706Z,67.50
2023-01-09T09:48:57.154Z,61.60
2023-01-09T09:52:15.078Z,59.20
2023-01-09T09:55:31.049Z,58.50
2023-01-09T09:58:40.594Z,66.30
2023-01-09T10:01:54.954Z,69.00
2023-01-09T10:05:13.617Z,61.10
2023-01-09T10:08:31.559Z,60.90
2023-01-09T10:11:45.954Z,61.90
2023-01-09T10:14:52.957Z,61.90
2023-01-09T10:18:16.424Z,61.50
2023-01-09T10:21:31.744Z,57.30
2023-01-09T10:25:06.912Z,59.10
2023-01-09T10:28:29.521Z,58.10
2023-01-09T10:31:47.108Z,60.50
2023-01-09T10:35:06.172Z,62.80
2023-01-09T10:38:19.477Z,61.40
2023-01-09T10:41:33.050Z,61.20
2023-01-09T10:44:47.148Z,61.50
2023-01-09T10:48:01.489Z,60.20
2023-01-09T10:51:20.195Z,55.20
2023-01-09T10:54:29.360Z,61.60
2023-01-09T10:57:44.380Z,54.60
2023-01-09T11:00:52.617Z,56.50
2023-01-09T11:04:01.956Z,59.10
2023-01-09T11:07:18.063Z,62.00
2023-01-09T11:10:24.963Z,63.40
2023-01-09T11:13:33.588Z,60.50
2023-01-09T11:16:51.534Z,61.00
2023-01-09T11:20:06.499Z,58.70
2023-01-09T11:23:30.219Z,55.10
2023-01-09T11:26:39.840Z,60.00
2023-01-09T11:32:52.227Z,57.40
2023-01-09T11:36:02.968Z,59.00
2023-01-09T11:39:24.911Z,57.40
2023-01-09T11:42:50.605Z,64.00
2023-01-09T11:46:01.646Z,61.40
2023-01-09T11:49:23.969Z,56.40
2023-01-09T11:52:30.802Z,60.20
2023-01-09T11:55:42.475Z,54.80
2023-01-09T11:58:50.114Z,52.80
2023-01-09T12:02:31.885Z,51.20
2023-01-09T12:05:50.321Z,52.50
2023-01-09T12:09:02.131Z,57.80
2023-01-09T12:12:21.588Z,64.40
2023-01-09T12:18:54.869Z,63.50
2023-01-09T12:22:08.974Z,61.30
2023-01-09T12:25:29.294Z,63.60
2023-01-09T12:29:00.767Z,56.20
2023-01-09T12:32:28.855Z,55.50
2023-01-09T12:35:42.116Z,56.60
2023-01-09T12:38:57.160Z,54.40
2023-01-09T12:42:26.429Z,61.70
2023-01-09T12:45:45.423Z,54.50
2023-01-09T12:49:15.000Z,57.70
2023-01-09T12:52:26.738Z,54.60
2023-01-09T12:55:42.117Z,54.50
2023-01-09T12:58:54.521Z,50.80
2023-01-09T13:02:13.207Z,45.70
2023-01-09T13:05:24.912Z,47.20
2023-01-09T13:08:35.573Z,49.90
2023-01-09T13:11:48.351Z,49.80
2023-01-09T13:15:00.776Z,55.00
2023-01-09T13:18:13.687Z,55.70
2023-01-09T13:21:22.075Z,57.30
2023-01-09T13:24:37.492Z,53.50
2023-01-09T13:27:52.936Z,57.00
2023-01-09T13:31:15.147Z,52.00
2023-01-09T13:34:25.559Z,53.20
2023-01-09T13:37:34.264Z,57.30
2023-01-09T13:40:41.472Z,50.90
2023-01-09T13:43:59.724Z,53.20
2023-01-09T13:47:17.292Z,56.20
2023-01-09T13:50:30.312Z,59.60
2023-01-09T13:53:49.747Z,58.20
2023-01-09T14:01:05.389Z,54.40
2023-01-09T14:04:44.665Z,56.30
2023-01-09T14:07:53.601Z,54.00
2023-01-09T14:11:02.787Z,51.30
2023-01-09T14:14:26.369Z,51.60
2023-01-09T14:17:38.596Z,45.50
2023-01-09T14:20:53.605Z,50.80
2023-01-09T14:24:06.698Z,50.90
2023-01-09T14:27:59.710Z,53.60
2023-01-09T14:31:10.467Z,55.90
2023-01-09T14:34:39.971Z,55.00
2023-01-09T14:37:54.071Z,50.10
2023-01-09T14:41:05.376Z,53.40
2023-01-09T14:44:26.161Z,52.40
2023-01-09T14:47:39.305Z,51.40
2023-01-09T14:50:55.215Z,52.10
2023-01-09T14:54:16.338Z,49.60
2023-01-09T14:57:31.301Z,46.40
2023-01-09T15:00:38.078Z,52.00
2023-01-09T15:03:50.801Z,50.50
2023-01-09T15:06:57.751Z,45.70
2023-01-09T15:10:06.147Z,49.00
2023-01-09T15:13:19.479Z,44.90
2023-01-09T15:16:28.417Z,48.40
2023-01-09T15:19:37.487Z,48.70
2023-01-09T15:22:52.754Z,43.00
2023-01-09T15:26:15.368Z,50.40
2023-01-09T15:29:23.512Z,46.30
2023-01-09T15:32:31.786Z,46.20
2023-01-09T15:35:42.106Z,47.40
2023-01-09T15:38:51.009Z,42.70
2023-01-09T15:42:25.650Z,42.40
2023-01-09T15:45:35.772Z,43.90
2023-01-09T15:48:42.883Z,42.60
2023-01-09T15:51:53.247Z,41.90
2023-01-09T15:55:02.514Z,42.90
2023-01-09T15:58:29.161Z,41.00
2023-01-09T16:01:39.785Z,41.30
2023-01-09T16:04:47.033Z,44.20
2023-01-09T16:07:54.722Z,44.10
2023-01-09T16:11:10.524Z,42.30
2023-01-09T16:14:21.805Z,39.90
2023-01-09T16:17:31.421Z,34.80
2023-01-09T16:20:40.111Z,41.80
2023-01-09T16:23:54.789Z,40.90
2023-01-09T16:27:21.898Z,44.30
2023-01-09T16:30:29.495Z,43.40
2023-01-09T16:33:36.687Z,42.10
2023-01-09T16:36:43.568Z,39.80
2023-01-09T16:40:24.163Z,37.40
2023-01-09T16:43:31.131Z,36.50
2023-01-09T16:46:40.372Z,35.40
2023-01-09T16:49:47.100Z,35.90
2023-01-09T16:52:53.944Z,36.80
2023-01-09T16:56:01.550Z,34.40
2023-01-09T16:59:15.294Z,40.00
2023-01-09T17:02:22.983Z,36.00
2023-01-09T17:05:29.715Z,35.90
2023-01-09T17:08:37.978Z,34.20
2023-01-09T17:11:45.892Z,34.10
2023-01-09T17:14:53.091Z,35.20
2023-01-09T17:18:00.986Z,33.70
2023-01-09T17:21:13.814Z,35.00
2023-01-09T17:24:38.919Z,34.60
2023-01-09T17:28:03.791Z,30.30
2023-01-09T17:31:13.028Z,32.00
2023-01-09T17:34:20.254Z,29.10
2023-01-09T17:37:27.010Z,38.00
2023-01-09T17:40:34.837Z,30.60
2023-01-09T17:43:44.118Z,36.20
2023-01-09T17:46:52.127Z,35.50
2023-01-09T17:49:58.930Z,30.10
2023-01-09T17:53:06.335Z,32.90
2023-01-09T17:56:18.423Z,34.30
2023-01-09T17:59:27.471Z,35.70
2023-01-09T18:02:34.561Z,31.70
2023-01-09T18:05:41.599Z,33.20
2023-01-09T18:08:48.936Z,33.00
2023-01-09T18:11:56.057Z,34.20
2023-01-09T18:15:03.517Z,29.70
2023-01-09T18:18:10.642Z,29.80
2023-01-09T18:21:20.313Z,30.10
2023-01-09T18:27:32.435Z,32.60
2023-01-09T18:30:39.349Z,25.00
2023-01-09T18:33:47.425Z,29.20
2023-01-09T18:36:54.362Z,29.90
2023-01-09T18:40:01.210Z,30.00
2023-01-09T18:43:09.165Z,24.60
2023-01-09T18:46:16.444Z,34.10
2023-01-09T18:49:23.345Z,29.70
2023-01-09T18:52:30.108Z,31.00
2023-01-09T18:55:38.806Z,34.80
2023-01-09T18:58:45.628Z,32.70
2023-01-09T19:01:52.480Z,32.90
2023-01-09T19:04:59.321Z,34.70
2023-01-09T19:08:06.514Z,39.80
2023-01-09T19:11:13.546Z,36.50
2023-01-09T19:14:20.360Z,39.20
2023-01-09T19:17:27.113Z,38.80
2023-01-09T19:20:34.538Z,41.00
2023-01-09T19:23:43.037Z,35.60
2023-01-09T19:26:49.780Z,38.90
2023-01-09T19:29:56.715Z,35.00
2023-01-09T19:33:03.912Z,38.80
2023-01-09T19:36:11.577Z,31.70
2023-01-09T19:39:18.291Z,31.10
2023-01-09T19:42:25.611Z,28.80
2023-01-09T19:45:32.521Z,29.50
2023-01-09T19:48:39.656Z,33.70
2023-01-09T19:51:46.466Z,31.60
2023-01-09T19:54:53.732Z,34.30
2023-01-09T19:58:00.467Z,29.80
2023-01-09T20:01:12.599Z,30.10
2023-01-09T20:04:20.218Z,28.70
2023-01-09T20:07:27.078Z,29.70
2023-01-09T20:10:34.624Z,30.10
2023-01-09T20:13:41.832Z,28.00
2023-01-09T20:16:50.826Z,30.80
2023-01-09T20:19:57.606Z,31.10
2023-01-09T20:23:04.455Z,30.00
2023-01-09T20:26:11.291Z,28.10
2023-01-09T20:29:18.220Z,27.00
2023-01-09T20:32:25.156Z,27.80
2023-01-09T20:35:32.462Z,32.20
2023-01-09T20:38:41.502Z,30.90
2023-01-09T20:41:51.461Z,32.30
2023-01-09T20:44:58.333Z,35.70
2023-01-09T20:48:05.316Z,37.80
2023-01-09T20:51:12.714Z,32.80
2023-01-09T20:54:21.358Z,34.10
2023-01-09T20:57:29.596Z,35.70
2023-01-09T21:00:36.447Z,36.00
2023-01-09T21:03:44.017Z,35.60
2023-01-09T21:06:50.814Z,32.10
2023-01-09T21:09:58.453Z,32.70
2023-01-09T21:13:05.045Z,40.00
2023-01-09T21:16:13.429Z,32.90
2023-01-09T21:19:20.301Z,34.10
2023-01-09T21:22:27.230Z,39.50
2023-01-09T21:25:33.880Z,36.70
2023-01-09T21:28:50.264Z,36.80
2023-01-09T21:31:57.230Z,35.60
2023-01-09T21:35:05.991Z,34.90
2023-01-09T21:38:12.618Z,31.30
2023-01-09T21:41:39.196Z,34.00
2023-01-09T21:45:03.283Z,32.00
2023-01-09T21:48:11.370Z,35.30
2023-01-09T21:51:18.127Z,40.20
2023-01-09T21:54:25.822Z,35.20
2023-01-09T21:57:32.647Z,35.50
2023-01-09T22:00:41.286Z,33.90
2023-01-09T22:03:47.991Z,36.10
2023-01-09T22:06:54.936Z,37.30
2023-01-09T22:10:01.769Z,38.30
2023-01-09T22:13:16.224Z,37.50
2023-01-09T22:16:24.403Z,39.20
2023-01-09T22:19:31.726Z,33.30
2023-01-09T22:22:38.465Z,34.40
2023-01-09T22:25:47.524Z,36.80
2023-01-09T22:28:55.830Z,34.30
2023-01-09T22:32:05.852Z,32.80
2023-01-09T22:35:13.192Z,32.90
2023-01-09T22:38:19.853Z,40.10
2023-01-09T22:41:27.613Z,34.50
2023-01-09T22:44:34.361Z,43.50
2023-01-09T22:47:41.189Z,35.80
2023-01-09T22:50:47.875Z,39.50
2023-01-09T22:53:54.663Z,37.70
2023-01-09T22:57:01.540Z,37.90
2023-01-09T23:00:12.886Z,39.60
2023-01-09T23:03:19.649Z,54.80
2023-01-09T23:06:26.552Z,64.00
2023-01-09T23:09:33.282Z,65.00
2023-01-09T23:12:39.946Z,58.40
2023-01-09T23:15:47.198Z,54.80
2023-01-09T23:18:53.973Z,56.00
2023-01-09T23:22:01.498Z,57.90
2023-01-09T23:25:09.791Z,59.90
2023-01-09T23:28:16.612Z,55.70
2023-01-09T23:31:23.503Z,49.10
2023-01-09T23:34:30.319Z,50.10
2023-01-09T23:37:37.078Z,44.80
2023-01-09T23:40:44.473Z,49.20
2023-01-09T23:43:51.256Z,46.80
2023-01-09T23:46:57.954Z,48.70
2023-01-09T23:50:07.038Z,49.70
2023-01-09T23:53:13.884Z,43.20
2023-01-09T23:56:20.665Z,47.90
2023-01-09T23:59:27.610Z,46.20
